createdAt,value
2018-12-01T00:01:43.143Z,84.58
2018-12-01T00:07:48.348Z,85.09
2018-12-01T00:13:53.387Z,84.90
2018-12-01T00:19:58.914Z,85.75
2018-12-01T00:26:03.713Z,86.15
2018-12-01T00:32:08.446Z,86.02
2018-12-01T00:38:13.189Z,86.60
2018-12-01T00:44:18.362Z,86.93
2018-12-01T00:50:24.680Z,86.33
2018-12-01T00:56:29.402Z,86.27
2018-12-01T01:02:34.560Z,86.50
2018-12-01T01:08:39.739Z,86.73
2018-12-01T01:14:45.574Z,87.43
2018-12-01T01:20:50.295Z,87.15
2018-12-01T01:26:55.049Z,88.30
2018-12-01T01:33:16.692Z,88.57
2018-12-01T01:39:21.501Z,88.63
2018-12-01T01:45:26.215Z,88.01
2018-12-01T01:51:31.010Z,88.49
2018-12-01T01:57:36.368Z,88.59
2018-12-01T02:03:41.060Z,87.92
2018-12-01T02:09:45.812Z,88.11
2018-12-01T02:15:50.548Z,88.82
2018-12-01T02:21:55.303Z,88.18
2018-12-01T02:28:00.130Z,88.03
2018-12-01T02:34:06.191Z,87.68
2018-12-01T02:40:13.404Z,88.05
2018-12-01T02:47:35.505Z,88.92
2018-12-01T02:53:40.327Z,89.24
2018-12-01T02:59:45.116Z,88.73
2018-12-01T03:05:49.929Z,88.96
2018-12-01T03:11:54.732Z,88.82
2018-12-01T03:17:59.529Z,88.79
2018-12-01T03:24:05.495Z,88.16
2018-12-01T03:30:11.622Z,88.92
2018-12-01T03:36:16.332Z,89.15
2018-12-01T03:42:21.034Z,89.38
2018-12-01T03:48:26.587Z,88.76
2018-12-01T03:54:31.318Z,89.23
2018-12-01T04:00:36.629Z,88.82
2018-12-01T04:06:41.302Z,89.29
2018-12-01T04:12:45.940Z,89.23
2018-12-01T04:18:50.965Z,88.39
2018-12-01T04:24:55.650Z,88.75
2018-12-01T04:31:00.330Z,88.78
2018-12-01T04:37:05.089Z,89.06
2018-12-01T04:43:09.738Z,89.32
2018-12-01T04:49:14.414Z,89.06
2018-12-01T04:55:21.311Z,89.42
2018-12-01T05:01:25.952Z,89.03
2018-12-01T05:07:30.704Z,89.28
2018-12-01T05:13:35.347Z,89.56
2018-12-01T05:19:40.123Z,89.15
2018-12-01T05:25:45.414Z,88.20
2018-12-01T05:31:50.675Z,88.23
2018-12-01T05:37:55.403Z,89.14
2018-12-01T05:44:02.158Z,87.82
2018-12-01T05:50:08.850Z,88.56
2018-12-01T05:56:14.824Z,88.31
2018-12-01T06:02:22.294Z,88.61
2018-12-01T06:08:27.850Z,88.55
2018-12-01T06:14:33.173Z,87.79
2018-12-01T06:20:38.332Z,87.10
2018-12-01T06:26:43.992Z,88.47
2018-12-01T06:32:51.756Z,88.65
2018-12-01T06:41:29.898Z,89.09
2018-12-01T06:47:34.673Z,89.08
2018-12-01T06:53:39.438Z,89.01
2018-12-01T06:59:44.243Z,88.80
2018-12-01T07:05:49.522Z,87.82
2018-12-01T07:11:54.999Z,88.87
2018-12-01T07:17:59.815Z,88.60
2018-12-01T07:24:04.935Z,88.92
2018-12-01T07:30:13.855Z,88.35
2018-12-01T07:36:19.400Z,88.45
2018-12-01T07:42:24.131Z,87.33
2018-12-01T07:48:29.651Z,87.73
2018-12-01T07:54:34.400Z,87.61
2018-12-01T08:00:39.769Z,87.99
2018-12-01T08:06:44.844Z,86.85
2018-12-01T08:12:49.667Z,86.32
2018-12-01T08:18:54.393Z,87.16
2018-12-01T08:24:59.564Z,86.61
2018-12-01T08:31:04.694Z,85.90
2018-12-01T08:37:09.631Z,85.25
2018-12-01T08:43:14.723Z,86.12
2018-12-01T08:49:19.489Z,85.62
2018-12-01T08:55:25.932Z,84.98
2018-12-01T09:01:30.697Z,85.03
2018-12-01T09:07:35.964Z,83.89
2018-12-01T09:13:40.774Z,83.47
2018-12-01T09:19:46.276Z,83.37
2018-12-01T09:25:50.974Z,81.87
2018-12-01T09:31:56.071Z,81.18
2018-12-01T09:38:00.950Z,81.42
2018-12-01T09:44:05.775Z,80.09
2018-12-01T09:50:14.049Z,80.40
2018-12-01T09:56:18.797Z,80.78
2018-12-01T10:02:23.494Z,79.82
2018-12-01T10:08:28.170Z,78.85
2018-12-01T10:14:33.122Z,79.81
2018-12-01T10:20:38.713Z,77.34
2018-12-01T10:26:42.751Z,77.90
2018-12-01T10:32:48.011Z,77.80
2018-12-01T10:38:52.810Z,77.02
2018-12-01T10:44:57.644Z,76.45
2018-12-01T10:51:02.603Z,77.05
2018-12-01T10:57:07.415Z,75.56
2018-12-01T11:03:17.681Z,73.63
2018-12-01T11:09:23.374Z,73.09
2018-12-01T11:15:28.926Z,71.73
2018-12-01T11:21:33.687Z,70.96
2018-12-01T11:27:38.858Z,70.46
2018-12-01T11:33:43.640Z,70.11
2018-12-01T11:39:49.210Z,70.00
2018-12-01T11:45:54.551Z,70.48
2018-12-01T11:51:59.419Z,70.38
2018-12-01T11:58:04.831Z,70.53
2018-12-01T12:04:09.665Z,69.74
2018-12-01T12:10:14.482Z,69.57
2018-12-01T12:16:19.747Z,69.74
2018-12-01T12:22:24.576Z,70.17
2018-12-01T12:28:29.340Z,70.50
2018-12-01T12:34:34.413Z,71.52
2018-12-01T12:40:39.787Z,71.50
2018-12-01T12:46:45.010Z,71.86
2018-12-01T12:52:54.470Z,70.38
2018-12-01T12:58:59.240Z,70.19
2018-12-01T13:05:05.198Z,70.22
2018-12-01T13:11:10.221Z,71.06
2018-12-01T13:17:15.805Z,71.30
2018-12-01T13:23:21.116Z,70.73
2018-12-01T13:29:25.948Z,71.19
2018-12-01T13:35:31.042Z,70.15
2018-12-01T13:41:36.091Z,70.29
2018-12-01T13:47:41.466Z,71.86
2018-12-01T13:53:46.178Z,71.77
2018-12-01T13:59:51.676Z,71.92
2018-12-01T14:05:56.405Z,72.52
2018-12-01T14:12:01.721Z,73.51
2018-12-01T14:18:07.403Z,73.79
2018-12-01T14:24:12.069Z,73.54
2018-12-01T14:30:18.233Z,73.99
2018-12-01T14:36:23.494Z,73.68
2018-12-01T14:42:28.193Z,74.55
2018-12-01T14:48:33.605Z,74.94
2018-12-01T14:54:38.411Z,75.56
2018-12-01T15:00:43.149Z,75.39
2018-12-01T15:06:48.600Z,75.42
2018-12-01T15:12:53.320Z,76.07
2018-12-01T15:18:58.006Z,76.10
2018-12-01T15:25:03.357Z,75.41
2018-12-01T15:31:08.194Z,74.82
2018-12-01T15:37:13.279Z,75.37
2018-12-01T15:43:18.055Z,76.08
2018-12-01T15:49:22.967Z,76.01
2018-12-01T15:55:28.203Z,76.51
2018-12-01T16:01:33.594Z,77.06
2018-12-01T16:07:38.955Z,76.79
2018-12-01T16:13:43.703Z,78.38
2018-12-01T16:19:48.496Z,79.08
2018-12-01T16:25:53.286Z,79.27
2018-12-01T16:31:57.996Z,80.17
2018-12-01T16:38:02.944Z,80.36
2018-12-01T16:44:08.666Z,80.80
2018-12-01T16:50:15.977Z,81.68
2018-12-01T16:56:21.076Z,81.96
2018-12-01T17:02:25.827Z,82.40
2018-12-01T17:08:31.296Z,82.96
2018-12-01T17:14:36.455Z,82.52
2018-12-01T17:20:41.728Z,82.48
2018-12-01T17:26:47.279Z,82.33
2018-12-01T17:32:52.949Z,82.34
2018-12-01T17:38:57.824Z,82.88
2018-12-01T17:57:44.922Z,83.34
2018-12-01T18:03:50.511Z,83.31
2018-12-01T18:09:55.239Z,82.76
2018-12-01T18:15:59.919Z,82.55
2018-12-01T18:22:05.407Z,83.03
2018-12-01T18:28:12.330Z,82.13
2018-12-01T18:34:17.956Z,81.82
2018-12-01T18:40:24.090Z,81.25
2018-12-01T18:46:28.872Z,82.27
2018-12-01T18:52:33.654Z,82.74
2018-12-01T18:58:38.417Z,82.31
2018-12-01T19:04:43.175Z,82.38
2018-12-01T19:10:47.867Z,82.13
2018-12-01T19:16:53.283Z,82.42
2018-12-01T19:22:58.854Z,82.18
2018-12-01T19:29:03.901Z,82.36
2018-12-01T19:35:13.557Z,82.76
2018-12-01T19:41:18.763Z,82.22
2018-12-01T19:47:23.473Z,81.79
2018-12-01T19:53:28.217Z,81.69
2018-12-01T19:59:33.807Z,82.48
2018-12-01T20:05:38.636Z,81.66
2018-12-01T20:11:44.253Z,81.89
2018-12-01T20:17:49.476Z,81.60
2018-12-01T20:23:54.675Z,81.37
2018-12-01T20:30:00.064Z,80.69
2018-12-01T20:36:12.127Z,81.02
2018-12-01T20:42:16.320Z,81.44
2018-12-01T20:48:21.564Z,80.99
2018-12-01T20:54:36.269Z,81.40
2018-12-01T21:00:41.035Z,80.98
2018-12-01T21:06:45.916Z,80.69
2018-12-01T21:12:50.751Z,80.15
2018-12-01T21:18:55.558Z,80.71
2018-12-01T21:25:00.337Z,80.84
2018-12-01T21:31:06.019Z,80.88
2018-12-01T21:37:10.879Z,81.06
2018-12-01T21:43:15.572Z,81.46
2018-12-01T21:49:20.801Z,80.88
2018-12-01T21:55:26.066Z,82.15
2018-12-01T22:01:30.776Z,82.21
2018-12-01T22:07:35.853Z,82.00
2018-12-01T22:13:40.652Z,82.69
2018-12-01T22:19:46.151Z,82.79
2018-12-01T22:25:51.650Z,82.39
2018-12-01T22:31:56.437Z,82.03
2018-12-01T22:38:01.415Z,82.61
2018-12-01T22:44:06.342Z,82.15
2018-12-01T22:50:20.370Z,80.68
2018-12-01T22:56:28.898Z,81.05
2018-12-01T23:02:31.261Z,81.13
2018-12-01T23:08:36.052Z,80.42
2018-12-01T23:14:41.820Z,80.02
2018-12-01T23:20:48.139Z,79.01
2018-12-01T23:26:52.915Z,78.15
2018-12-01T23:33:02.622Z,76.81
2018-12-01T23:39:08.634Z,75.11
2018-12-01T23:45:16.602Z,75.47
2018-12-01T23:51:21.327Z,75.02
2018-12-01T23:57:26.597Z,75.41
